This London Heathrow Airport weather forecast is generated by the Met Office Weather Widget

AirNav RadarBox - Metar Weather
  London Heathrow Metar Weather
 

METAR = EGLL 290120Z AUTO 24011KT 9999 NCD 07/04 Q1009 NOSIG

STATION........ EGLL
OBSERVED....... Fri Apr 29, 02:20 BST
NOW............ Fri Apr 29, 02:43 BST
AGE............ 23 min ago
WIND........... WSW at 13 mph
VISIBILITY..... 16 miles

Fri Apr 29 2016, sunrise time : 04:39
Fri Apr 29 2016, sunset time : 19:18